ZAPA24 FAVB-FAGM

Flight info

Callsign ZAPA24
Flight time 1h 43m
Altitude 9500
Route RD
Aircraft PA24/L-SDGRY/S

Departure

Time 2026-05-09 09:10
Airport Vryburg Airport (FAVB)

Arrival

Time 2026-05-09 10:53
Airport Rand Airport (FAGM)
Time Latitude Longitude Altitude Speed Heading
2026-05-09 08:47 -26.98318 24.73349 3923 ft 0 kts 342°
2026-05-09 09:05 -26.98317 24.73349 3923 ft 0 kts 342°
2026-05-09 09:08 -26.98315 24.73348 3923 ft 4 kts 342°
2026-05-09 09:08 -26.98149 24.73290 3924 ft 47 kts 342°
2026-05-09 09:08 -26.97719 24.73141 3924 ft 81 kts 343°
2026-05-09 09:08 -26.97117 24.72935 4005 ft 97 kts 342°
2026-05-09 09:09 -26.96448 24.72691 4171 ft 104 kts 341°
2026-05-09 09:09 -26.95747 24.72420 4292 ft 109 kts 341°
2026-05-09 09:09 -26.95065 24.72053 4429 ft 112 kts 320°
2026-05-09 09:09 -26.94661 24.71293 4476 ft 119 kts 280°
2026-05-09 09:10 -26.94835 24.70404 4568 ft 120 kts 235°
2026-05-09 09:10 -26.95506 24.69931 4689 ft 116 kts 188°
2026-05-09 09:10 -26.96308 24.70061 4745 ft 119 kts 157°
2026-05-09 09:10 -26.97063 24.70450 4803 ft 120 kts 156°
2026-05-09 09:11 -26.97843 24.70768 4882 ft 120 kts 164°
2026-05-09 09:11 -26.98672 24.70987 4906 ft 124 kts 169°
2026-05-09 09:11 -26.99500 24.71234 4992 ft 122 kts 156°
2026-05-09 09:11 -27.00174 24.71837 4954 ft 129 kts 129°
2026-05-09 09:12 -27.00765 24.72583 4961 ft 129 kts 134°
2026-05-09 09:12 -27.01389 24.73309 4957 ft 129 kts 133°
2026-05-09 09:12 -27.02015 24.74031 4953 ft 130 kts 139°
2026-05-09 09:12 -27.02760 24.74592 4950 ft 130 kts 155°
2026-05-09 09:13 -27.03595 24.74918 4955 ft 126 kts 163°
2026-05-09 09:13 -27.04428 24.75199 4948 ft 124 kts 163°
2026-05-09 09:13 -27.05267 24.75412 4947 ft 123 kts 171°
2026-05-09 09:13 -27.06117 24.75496 4947 ft 123 kts 177°
2026-05-09 09:14 -27.06967 24.75559 4947 ft 122 kts 176°
2026-05-09 09:14 -27.07808 24.75655 4940 ft 123 kts 165°
2026-05-09 09:14 -27.08509 24.76221 4849 ft 128 kts 123°
2026-05-09 09:14 -27.08685 24.77182 4805 ft 128 kts 81°
2026-05-09 09:15 -27.08451 24.78091 4930 ft 116 kts 71°
2026-05-09 09:15 -27.08189 24.78944 4950 ft 117 kts 71°
2026-05-09 09:15 -27.07909 24.79812 4937 ft 120 kts 70°
2026-05-09 09:15 -27.07616 24.80699 4913 ft 122 kts 70°
2026-05-09 09:16 -27.07325 24.81589 4937 ft 120 kts 69°
2026-05-09 09:16 -27.06763 24.83336 4959 ft 120 kts 70°
2026-05-09 09:16 -27.06468 24.84221 4947 ft 123 kts 69°
2026-05-09 09:17 -27.06143 24.85125 4954 ft 125 kts 68°
2026-05-09 09:17 -27.05841 24.86022 5044 ft 122 kts 70°
2026-05-09 09:17 -27.05558 24.86922 5070 ft 124 kts 70°
2026-05-09 09:17 -27.05266 24.87847 5115 ft 124 kts 70°
2026-05-09 09:18 -27.04982 24.88751 5172 ft 123 kts 71°
2026-05-09 09:18 -27.04696 24.89661 5204 ft 124 kts 70°
2026-05-09 09:18 -27.04413 24.90572 5254 ft 124 kts 71°
2026-05-09 09:18 -27.04134 24.91481 5297 ft 124 kts 71°
2026-05-09 09:19 -27.03843 24.92389 5336 ft 124 kts 70°
2026-05-09 09:19 -27.03540 24.93294 5381 ft 124 kts 69°
2026-05-09 09:19 -27.03244 24.94201 5420 ft 124 kts 70°
2026-05-09 09:19 -27.02950 24.95109 5461 ft 124 kts 70°
2026-05-09 09:20 -27.02659 24.96019 5502 ft 124 kts 71°
2026-05-09 09:20 -27.02429 24.96951 5533 ft 125 kts 77°
2026-05-09 09:20 -27.02234 24.97896 5577 ft 124 kts 77°
2026-05-09 09:20 -27.02038 24.98840 5614 ft 124 kts 77°
2026-05-09 09:21 -27.01841 24.99784 5648 ft 125 kts 77°
2026-05-09 09:21 -27.01633 25.00739 5688 ft 124 kts 76°
2026-05-09 09:21 -27.01424 25.01681 5722 ft 125 kts 76°
2026-05-09 09:21 -27.01216 25.02623 5757 ft 125 kts 76°
2026-05-09 09:22 -27.01008 25.03566 5793 ft 125 kts 76°
2026-05-09 09:22 -27.00797 25.04507 5825 ft 125 kts 76°
2026-05-09 09:22 -27.00593 25.05454 5857 ft 125 kts 76°
2026-05-09 09:22 -27.00391 25.06402 5890 ft 125 kts 76°
2026-05-09 09:23 -27.00190 25.07348 5923 ft 125 kts 76°
2026-05-09 09:23 -26.99986 25.08296 5954 ft 125 kts 76°
2026-05-09 09:23 -26.99778 25.09241 5986 ft 125 kts 76°
2026-05-09 09:23 -26.99568 25.10188 6016 ft 125 kts 76°
2026-05-09 09:24 -26.99356 25.11134 6047 ft 125 kts 76°
2026-05-09 09:24 -26.99141 25.12093 6077 ft 125 kts 76°
2026-05-09 09:24 -26.98928 25.13040 6106 ft 125 kts 76°
2026-05-09 09:24 -26.98719 25.13988 6135 ft 126 kts 76°
2026-05-09 09:25 -26.98511 25.14937 6164 ft 126 kts 76°
2026-05-09 09:25 -26.98304 25.15887 6191 ft 126 kts 76°
2026-05-09 09:25 -26.98096 25.16836 6217 ft 126 kts 76°
2026-05-09 09:25 -26.97884 25.17787 6245 ft 126 kts 76°
2026-05-09 09:26 -26.97671 25.18736 6271 ft 126 kts 76°
2026-05-09 09:26 -26.97456 25.19686 6297 ft 126 kts 76°
2026-05-09 09:26 -26.97240 25.20634 6323 ft 126 kts 76°
2026-05-09 09:26 -26.97024 25.21584 6348 ft 126 kts 76°
2026-05-09 09:27 -26.96810 25.22534 6373 ft 126 kts 76°
2026-05-09 09:27 -26.96597 25.23485 6398 ft 126 kts 76°
2026-05-09 09:27 -26.96385 25.24438 6422 ft 126 kts 76°
2026-05-09 09:27 -26.96169 25.25401 6446 ft 126 kts 76°
2026-05-09 09:28 -26.95954 25.26352 6470 ft 126 kts 76°
2026-05-09 09:28 -26.95737 25.27305 6493 ft 126 kts 76°
2026-05-09 09:28 -26.95519 25.28257 6515 ft 126 kts 76°
2026-05-09 09:28 -26.95300 25.29208 6535 ft 126 kts 75°
2026-05-09 09:29 -26.95081 25.30161 6558 ft 126 kts 76°
2026-05-09 09:29 -26.94862 25.31113 6579 ft 126 kts 76°
2026-05-09 09:29 -26.94645 25.32066 6600 ft 127 kts 76°
2026-05-09 09:29 -26.94428 25.33019 6621 ft 126 kts 76°
2026-05-09 09:30 -26.94210 25.33974 6641 ft 127 kts 76°
2026-05-09 09:30 -26.93991 25.34927 6661 ft 127 kts 75°
2026-05-09 09:30 -26.93771 25.35880 6681 ft 127 kts 75°
2026-05-09 09:30 -26.93549 25.36834 6701 ft 127 kts 75°
2026-05-09 09:31 -26.93323 25.37801 6737 ft 126 kts 75°
2026-05-09 09:31 -26.93101 25.38753 6767 ft 127 kts 75°
2026-05-09 09:31 -26.92879 25.39707 6793 ft 127 kts 75°
2026-05-09 09:32 -26.92436 25.41616 6852 ft 127 kts 75°
2026-05-09 09:32 -26.92213 25.42573 6897 ft 127 kts 75°
2026-05-09 09:32 -26.91991 25.43524 6956 ft 126 kts 75°
2026-05-09 09:32 -26.91767 25.44477 6995 ft 127 kts 75°
2026-05-09 09:33 -26.91543 25.45432 7044 ft 127 kts 75°
2026-05-09 09:33 -26.91317 25.46385 7092 ft 127 kts 75°
2026-05-09 09:33 -26.91091 25.47339 7134 ft 127 kts 75°
2026-05-09 09:33 -26.90865 25.48296 7181 ft 127 kts 75°
2026-05-09 09:34 -26.90639 25.49251 7224 ft 127 kts 75°
2026-05-09 09:34 -26.90487 25.49896 7251 ft 127 kts 75°
2026-05-09 09:34 -26.90260 25.50854 7292 ft 127 kts 75°
2026-05-09 09:36 -26.88735 25.57593 7490 ft 127 kts 76°
2026-05-09 09:36 -26.88527 25.58556 7492 ft 127 kts 76°
2026-05-09 09:36 -26.88319 25.59520 7492 ft 128 kts 76°
2026-05-09 09:37 -26.88111 25.60484 7493 ft 128 kts 76°
2026-05-09 09:37 -26.87902 25.61449 7491 ft 128 kts 76°
2026-05-09 09:37 -26.87692 25.62413 7492 ft 128 kts 76°
2026-05-09 09:37 -26.87482 25.63378 7491 ft 128 kts 76°
2026-05-09 09:38 -26.87271 25.64342 7492 ft 128 kts 76°
2026-05-09 09:38 -26.87060 25.65306 7492 ft 128 kts 76°
2026-05-09 09:38 -26.86849 25.66270 7491 ft 128 kts 76°
2026-05-09 09:38 -26.86638 25.67234 7492 ft 128 kts 76°
2026-05-09 09:39 -26.86426 25.68197 7492 ft 128 kts 76°
2026-05-09 09:39 -26.86214 25.69161 7492 ft 128 kts 76°
2026-05-09 09:39 -26.86002 25.70125 7491 ft 128 kts 76°
2026-05-09 09:39 -26.85786 25.71102 7492 ft 128 kts 76°
2026-05-09 09:40 -26.85572 25.72066 7491 ft 128 kts 76°
2026-05-09 09:40 -26.85358 25.73028 7492 ft 128 kts 76°
2026-05-09 09:40 -26.85144 25.73991 7492 ft 128 kts 76°
2026-05-09 09:40 -26.84930 25.74954 7491 ft 128 kts 76°
2026-05-09 09:41 -26.84715 25.75918 7492 ft 128 kts 76°
2026-05-09 09:41 -26.84500 25.76881 7492 ft 128 kts 76°
2026-05-09 09:41 -26.84285 25.77842 7491 ft 128 kts 76°
2026-05-09 09:41 -26.84069 25.78806 7493 ft 128 kts 76°
2026-05-09 09:42 -26.83852 25.79769 7491 ft 128 kts 76°
2026-05-09 09:42 -26.83636 25.80730 7492 ft 128 kts 76°
2026-05-09 09:42 -26.83418 25.81693 7492 ft 128 kts 76°
2026-05-09 09:42 -26.83201 25.82655 7491 ft 128 kts 76°
2026-05-09 09:43 -26.82980 25.83630 7493 ft 128 kts 76°
2026-05-09 09:43 -26.82762 25.84592 7492 ft 128 kts 76°
2026-05-09 09:43 -26.82544 25.85554 7491 ft 128 kts 76°
2026-05-09 09:43 -26.82325 25.86515 7492 ft 128 kts 76°
2026-05-09 09:44 -26.82106 25.87477 7493 ft 128 kts 76°
2026-05-09 09:44 -26.81886 25.88438 7492 ft 128 kts 76°
2026-05-09 09:44 -26.81666 25.89402 7491 ft 128 kts 76°
2026-05-09 09:44 -26.81446 25.90362 7492 ft 128 kts 76°
2026-05-09 09:45 -26.81225 25.91323 7492 ft 128 kts 76°
2026-05-09 09:45 -26.81004 25.92284 7492 ft 128 kts 76°
2026-05-09 09:45 -26.80782 25.93245 7493 ft 128 kts 76°
2026-05-09 09:45 -26.80561 25.94205 7492 ft 128 kts 75°
2026-05-09 09:46 -26.80338 25.95167 7493 ft 128 kts 75°
2026-05-09 09:46 -26.80113 25.96140 7491 ft 128 kts 75°
2026-05-09 09:46 -26.79890 25.97102 7492 ft 128 kts 75°
2026-05-09 09:46 -26.79667 25.98062 7492 ft 128 kts 75°
2026-05-09 09:47 -26.79443 25.99022 7492 ft 128 kts 75°
2026-05-09 09:47 -26.79219 25.99983 7492 ft 128 kts 75°
2026-05-09 09:47 -26.78994 26.00943 7491 ft 128 kts 75°
2026-05-09 09:47 -26.78770 26.01902 7492 ft 128 kts 75°
2026-05-09 09:48 -26.78545 26.02862 7492 ft 128 kts 75°
2026-05-09 09:48 -26.78319 26.03821 7492 ft 128 kts 75°
2026-05-09 09:48 -26.78093 26.04782 7493 ft 128 kts 75°
2026-05-09 09:48 -26.77867 26.05741 7492 ft 128 kts 75°
2026-05-09 09:49 -26.77640 26.06700 7492 ft 128 kts 75°
2026-05-09 09:49 -26.77410 26.07672 7493 ft 128 kts 75°
2026-05-09 09:49 -26.77183 26.08631 7492 ft 128 kts 75°
2026-05-09 09:49 -26.76955 26.09591 7493 ft 128 kts 75°
2026-05-09 09:50 -26.76727 26.10549 7493 ft 128 kts 75°
2026-05-09 09:50 -26.76499 26.11509 7492 ft 128 kts 75°
2026-05-09 09:50 -26.76270 26.12467 7493 ft 128 kts 75°
2026-05-09 09:50 -26.76041 26.13425 7493 ft 128 kts 75°
2026-05-09 09:51 -26.75811 26.14383 7492 ft 128 kts 75°
2026-05-09 09:51 -26.75581 26.15342 7493 ft 128 kts 75°
2026-05-09 09:51 -26.75351 26.16300 7492 ft 128 kts 75°
2026-05-09 09:51 -26.75120 26.17260 7492 ft 128 kts 75°
2026-05-09 09:52 -26.74889 26.18216 7493 ft 128 kts 75°
2026-05-09 09:52 -26.74658 26.19174 7493 ft 128 kts 75°
2026-05-09 09:52 -26.74440 26.20136 7492 ft 128 kts 77°
2026-05-09 09:52 -26.74231 26.21114 7492 ft 128 kts 76°
2026-05-09 09:53 -26.74024 26.22079 7492 ft 128 kts 76°
2026-05-09 09:53 -26.73816 26.23043 7493 ft 128 kts 76°
2026-05-09 09:53 -26.73608 26.24007 7493 ft 128 kts 76°
2026-05-09 09:53 -26.73400 26.24972 7493 ft 128 kts 76°
2026-05-09 09:54 -26.73191 26.25937 7492 ft 128 kts 76°
2026-05-09 09:54 -26.72981 26.26902 7491 ft 128 kts 76°
2026-05-09 09:54 -26.72772 26.27866 7493 ft 128 kts 76°
2026-05-09 09:54 -26.72566 26.28830 7492 ft 128 kts 76°
2026-05-09 09:55 -26.72359 26.29794 7492 ft 128 kts 76°
2026-05-09 09:55 -26.72151 26.30759 7493 ft 128 kts 76°
2026-05-09 09:55 -26.71944 26.31724 7492 ft 128 kts 76°
2026-05-09 09:55 -26.71735 26.32689 7492 ft 128 kts 76°
2026-05-09 09:56 -26.71524 26.33666 7493 ft 128 kts 76°
2026-05-09 09:56 -26.71315 26.34630 7492 ft 128 kts 76°
2026-05-09 09:56 -26.71105 26.35594 7493 ft 128 kts 76°
2026-05-09 09:56 -26.70895 26.36558 7493 ft 128 kts 76°
2026-05-09 09:57 -26.70685 26.37522 7492 ft 128 kts 76°
2026-05-09 09:57 -26.70475 26.38486 7493 ft 128 kts 76°
2026-05-09 09:57 -26.70264 26.39450 7492 ft 128 kts 76°
2026-05-09 09:57 -26.70053 26.40413 7493 ft 128 kts 76°
2026-05-09 09:58 -26.69842 26.41376 7493 ft 128 kts 76°
2026-05-09 09:58 -26.69630 26.42339 7491 ft 128 kts 76°
2026-05-09 09:58 -26.69423 26.43303 7492 ft 128 kts 76°
2026-05-09 09:58 -26.69213 26.44279 7493 ft 128 kts 76°
2026-05-09 09:59 -26.69009 26.45229 7492 ft 128 kts 76°
2026-05-09 09:59 -26.68798 26.46205 7492 ft 128 kts 76°
2026-05-09 09:59 -26.68590 26.47168 7493 ft 128 kts 76°
2026-05-09 09:59 -26.68382 26.48132 7492 ft 128 kts 76°
2026-05-09 10:00 -26.68173 26.49096 7493 ft 128 kts 76°
2026-05-09 10:00 -26.67964 26.50060 7493 ft 128 kts 76°
2026-05-09 10:00 -26.67755 26.51023 7492 ft 128 kts 76°
2026-05-09 10:00 -26.67545 26.51987 7492 ft 128 kts 76°
2026-05-09 10:01 -26.67334 26.52950 7493 ft 128 kts 76°
2026-05-09 10:01 -26.67123 26.53914 7492 ft 128 kts 76°
2026-05-09 10:01 -26.66912 26.54877 7493 ft 128 kts 76°
2026-05-09 10:01 -26.66701 26.55840 7493 ft 128 kts 76°
2026-05-09 10:02 -26.66489 26.56804 7492 ft 128 kts 76°
2026-05-09 10:02 -26.66277 26.57767 7493 ft 128 kts 76°
2026-05-09 10:02 -26.66062 26.58742 7493 ft 128 kts 76°
2026-05-09 10:02 -26.65849 26.59707 7492 ft 128 kts 76°
2026-05-09 10:03 -26.65635 26.60670 7493 ft 128 kts 76°
2026-05-09 10:03 -26.65422 26.61631 7492 ft 128 kts 76°
2026-05-09 10:03 -26.65208 26.62593 7492 ft 128 kts 76°
2026-05-09 10:03 -26.64993 26.63556 7494 ft 128 kts 76°
2026-05-09 10:04 -26.64778 26.64518 7492 ft 128 kts 76°
2026-05-09 10:04 -26.64567 26.65482 7493 ft 128 kts 76°
2026-05-09 10:04 -26.64360 26.66445 7493 ft 128 kts 76°
2026-05-09 10:04 -26.64153 26.67410 7492 ft 128 kts 76°
2026-05-09 10:05 -26.63945 26.68375 7493 ft 128 kts 76°
2026-05-09 10:05 -26.63737 26.69338 7494 ft 128 kts 76°
2026-05-09 10:05 -26.63529 26.70304 7493 ft 128 kts 76°
2026-05-09 10:05 -26.63317 26.71279 7494 ft 128 kts 76°
2026-05-09 10:06 -26.63108 26.72244 7492 ft 128 kts 76°
2026-05-09 10:06 -26.62898 26.73208 7492 ft 128 kts 76°
2026-05-09 10:06 -26.62689 26.74172 7492 ft 128 kts 76°
2026-05-09 10:06 -26.62479 26.75134 7494 ft 128 kts 76°
2026-05-09 10:07 -26.62268 26.76097 7492 ft 128 kts 76°
2026-05-09 10:07 -26.62058 26.77059 7493 ft 128 kts 76°
2026-05-09 10:07 -26.61846 26.78022 7493 ft 128 kts 76°
2026-05-09 10:07 -26.61635 26.78983 7492 ft 128 kts 76°
2026-05-09 10:08 -26.61423 26.79944 7492 ft 128 kts 76°
2026-05-09 10:08 -26.61211 26.80905 7494 ft 128 kts 76°
2026-05-09 10:08 -26.60999 26.81865 7492 ft 128 kts 76°
2026-05-09 10:08 -26.60786 26.82827 7492 ft 128 kts 76°
2026-05-09 10:09 -26.60573 26.83788 7493 ft 128 kts 76°
2026-05-09 10:09 -26.60357 26.84761 7493 ft 128 kts 76°
2026-05-09 10:09 -26.60143 26.85723 7493 ft 128 kts 76°
2026-05-09 10:09 -26.59928 26.86684 7492 ft 128 kts 76°
2026-05-09 10:10 -26.59713 26.87645 7494 ft 128 kts 76°
2026-05-09 10:10 -26.59498 26.88606 7493 ft 128 kts 76°
2026-05-09 10:10 -26.59282 26.89569 7494 ft 128 kts 76°
2026-05-09 10:10 -26.59066 26.90529 7492 ft 128 kts 76°
2026-05-09 10:11 -26.58850 26.91492 7493 ft 128 kts 76°
2026-05-09 10:11 -26.58633 26.92453 7494 ft 128 kts 76°
2026-05-09 10:11 -26.58416 26.93414 7493 ft 128 kts 76°
2026-05-09 10:11 -26.58198 26.94376 7493 ft 128 kts 76°
2026-05-09 10:12 -26.57980 26.95337 7493 ft 128 kts 76°
2026-05-09 10:12 -26.57759 26.96311 7492 ft 128 kts 76°
2026-05-09 10:12 -26.57541 26.97270 7493 ft 128 kts 76°
2026-05-09 10:12 -26.57321 26.98232 7494 ft 128 kts 76°
2026-05-09 10:13 -26.57102 26.99193 7493 ft 128 kts 76°
2026-05-09 10:13 -26.56882 27.00155 7493 ft 128 kts 76°
2026-05-09 10:13 -26.56662 27.01115 7494 ft 128 kts 76°
2026-05-09 10:13 -26.56441 27.02076 7493 ft 128 kts 76°
2026-05-09 10:14 -26.56220 27.03036 7492 ft 128 kts 76°
2026-05-09 10:14 -26.55999 27.03996 7494 ft 128 kts 76°
2026-05-09 10:14 -26.55777 27.04956 7493 ft 128 kts 76°
2026-05-09 10:14 -26.55555 27.05917 7492 ft 128 kts 75°
2026-05-09 10:15 -26.55333 27.06876 7494 ft 128 kts 75°
2026-05-09 10:15 -26.55110 27.07835 7493 ft 128 kts 75°
2026-05-09 10:15 -26.54884 27.08808 7492 ft 128 kts 75°
2026-05-09 10:15 -26.54660 27.09769 7494 ft 128 kts 75°
2026-05-09 10:16 -26.54436 27.10728 7494 ft 128 kts 75°
2026-05-09 10:16 -26.54212 27.11687 7492 ft 128 kts 75°
2026-05-09 10:16 -26.53988 27.12647 7494 ft 128 kts 76°
2026-05-09 10:16 -26.53780 27.13609 7493 ft 128 kts 77°
2026-05-09 10:17 -26.53573 27.14575 7493 ft 128 kts 76°
2026-05-09 10:17 -26.53365 27.15539 7494 ft 128 kts 76°
2026-05-09 10:17 -26.53157 27.16503 7493 ft 128 kts 76°
2026-05-09 10:17 -26.52949 27.17467 7494 ft 128 kts 76°
2026-05-09 10:18 -26.52740 27.18429 7494 ft 128 kts 76°
2026-05-09 10:18 -26.52531 27.19395 7493 ft 128 kts 76°
2026-05-09 10:18 -26.52322 27.20357 7493 ft 128 kts 76°
2026-05-09 10:18 -26.52109 27.21334 7494 ft 128 kts 76°
2026-05-09 10:19 -26.51899 27.22298 7493 ft 128 kts 76°
2026-05-09 10:19 -26.51688 27.23261 7494 ft 128 kts 76°
2026-05-09 10:19 -26.51478 27.24224 7493 ft 128 kts 76°
2026-05-09 10:19 -26.51266 27.25188 7493 ft 128 kts 76°
2026-05-09 10:20 -26.51055 27.26150 7494 ft 128 kts 76°
2026-05-09 10:20 -26.50843 27.27112 7494 ft 128 kts 76°
2026-05-09 10:20 -26.50630 27.28076 7494 ft 128 kts 76°
2026-05-09 10:20 -26.50418 27.29038 7493 ft 128 kts 76°
2026-05-09 10:21 -26.50204 27.30001 7494 ft 128 kts 76°
2026-05-09 10:21 -26.49992 27.30962 7493 ft 128 kts 76°
2026-05-09 10:21 -26.49778 27.31926 7494 ft 128 kts 76°
2026-05-09 10:21 -26.49564 27.32887 7494 ft 128 kts 76°
2026-05-09 10:22 -26.49346 27.33862 7494 ft 128 kts 76°
2026-05-09 10:22 -26.49132 27.34824 7494 ft 128 kts 76°
2026-05-09 10:22 -26.48916 27.35785 7492 ft 128 kts 76°
2026-05-09 10:22 -26.48700 27.36748 7494 ft 128 kts 76°
2026-05-09 10:23 -26.48484 27.37709 7493 ft 128 kts 76°
2026-05-09 10:23 -26.48268 27.38671 7494 ft 128 kts 76°
2026-05-09 10:23 -26.48052 27.39631 7494 ft 128 kts 76°
2026-05-09 10:23 -26.47834 27.40594 7493 ft 128 kts 76°
2026-05-09 10:24 -26.47617 27.41554 7494 ft 128 kts 76°
2026-05-09 10:24 -26.47399 27.42515 7494 ft 128 kts 76°
2026-05-09 10:24 -26.47181 27.43474 7493 ft 128 kts 76°
2026-05-09 10:24 -26.46963 27.44436 7494 ft 128 kts 76°
2026-05-09 10:25 -26.46743 27.45397 7493 ft 128 kts 76°
2026-05-09 10:25 -26.46526 27.46372 7493 ft 128 kts 76°
2026-05-09 10:25 -26.46320 27.47335 7495 ft 128 kts 76°
2026-05-09 10:25 -26.46112 27.48299 7493 ft 128 kts 76°
2026-05-09 10:26 -26.45904 27.49262 7494 ft 128 kts 76°
2026-05-09 10:26 -26.45696 27.50227 7494 ft 128 kts 76°
2026-05-09 10:26 -26.45488 27.51190 7493 ft 128 kts 76°
2026-05-09 10:26 -26.45279 27.52153 7494 ft 128 kts 76°
2026-05-09 10:27 -26.45070 27.53116 7494 ft 128 kts 76°
2026-05-09 10:27 -26.44862 27.54080 7493 ft 128 kts 76°
2026-05-09 10:27 -26.44655 27.55043 7494 ft 128 kts 76°
2026-05-09 10:27 -26.44447 27.56009 7495 ft 128 kts 76°
2026-05-09 10:28 -26.44240 27.56970 7494 ft 128 kts 76°
2026-05-09 10:28 -26.44031 27.57936 7493 ft 128 kts 76°
2026-05-09 10:28 -26.43891 27.58586 7494 ft 128 kts 76°
2026-05-09 10:28 -26.43611 27.59875 7494 ft 128 kts 76°
2026-05-09 10:29 -26.43474 27.60513 7494 ft 128 kts 76°
2026-05-09 10:29 -26.43196 27.61802 7493 ft 128 kts 76°
2026-05-09 10:29 -26.43059 27.62441 7494 ft 128 kts 76°
2026-05-09 10:29 -26.42851 27.63404 7493 ft 128 kts 76°
2026-05-09 10:30 -26.42643 27.64366 7494 ft 128 kts 76°
2026-05-09 10:30 -26.42434 27.65331 7494 ft 128 kts 76°
2026-05-09 10:30 -26.42222 27.66294 7493 ft 128 kts 75°
2026-05-09 10:30 -26.41983 27.67262 7494 ft 128 kts 74°
2026-05-09 10:31 -26.41746 27.68219 7494 ft 128 kts 75°
2026-05-09 10:31 -26.41509 27.69172 7493 ft 128 kts 75°
2026-05-09 10:31 -26.41271 27.70127 7494 ft 128 kts 74°
2026-05-09 10:31 -26.41033 27.71081 7494 ft 128 kts 74°
2026-05-09 10:32 -26.40794 27.72037 7493 ft 128 kts 74°
2026-05-09 10:32 -26.40555 27.72991 7495 ft 128 kts 74°
2026-05-09 10:32 -26.40316 27.73944 7495 ft 128 kts 74°
2026-05-09 10:32 -26.40076 27.74901 7493 ft 128 kts 74°
2026-05-09 10:33 -26.39835 27.75853 7495 ft 128 kts 74°
2026-05-09 10:33 -26.39595 27.76807 7494 ft 128 kts 74°
2026-05-09 10:33 -26.39354 27.77761 7493 ft 128 kts 74°
2026-05-09 10:33 -26.39113 27.78714 7494 ft 128 kts 74°
2026-05-09 10:34 -26.38871 27.79668 7493 ft 128 kts 74°
2026-05-09 10:34 -26.38384 27.81586 7494 ft 128 kts 74°
2026-05-09 10:34 -26.38142 27.82539 7495 ft 128 kts 74°
2026-05-09 10:35 -26.37898 27.83493 7493 ft 128 kts 74°
2026-05-09 10:35 -26.37655 27.84445 7495 ft 128 kts 74°
2026-05-09 10:35 -26.37417 27.85400 7493 ft 128 kts 75°
2026-05-09 10:35 -26.37180 27.86354 7494 ft 128 kts 74°
2026-05-09 10:36 -26.36942 27.87309 7494 ft 128 kts 75°
2026-05-09 10:36 -26.36704 27.88263 7493 ft 128 kts 74°
2026-05-09 10:36 -26.36465 27.89218 7494 ft 128 kts 74°
2026-05-09 10:36 -26.36227 27.90170 7494 ft 128 kts 74°
2026-05-09 10:37 -26.35988 27.91125 7493 ft 128 kts 74°
2026-05-09 10:37 -26.35745 27.92093 7494 ft 128 kts 74°
2026-05-09 10:37 -26.35509 27.93034 7494 ft 128 kts 74°
2026-05-09 10:37 -26.35266 27.93999 7493 ft 128 kts 74°
2026-05-09 10:38 -26.35025 27.94953 7495 ft 128 kts 74°
2026-05-09 10:38 -26.34784 27.95907 7494 ft 128 kts 74°
2026-05-09 10:38 -26.34543 27.96858 7494 ft 128 kts 74°
2026-05-09 10:38 -26.34301 27.97813 7495 ft 128 kts 74°
2026-05-09 10:39 -26.34059 27.98767 7493 ft 128 kts 74°
2026-05-09 10:39 -26.33817 27.99719 7494 ft 128 kts 74°
2026-05-09 10:39 -26.33576 28.00664 7483 ft 123 kts 74°
2026-05-09 10:39 -26.33349 28.01555 7396 ft 118 kts 74°
2026-05-09 10:40 -26.33123 28.02438 7239 ft 120 kts 74°
2026-05-09 10:40 -26.32896 28.03325 7091 ft 119 kts 74°
2026-05-09 10:40 -26.32667 28.04218 6921 ft 120 kts 74°
2026-05-09 10:40 -26.32434 28.05122 6777 ft 119 kts 74°
2026-05-09 10:41 -26.32211 28.05986 6706 ft 114 kts 74°
2026-05-09 10:41 -26.31999 28.06805 6693 ft 106 kts 74°
2026-05-09 10:41 -26.31799 28.07580 6680 ft 104 kts 74°
2026-05-09 10:41 -26.31601 28.08347 6689 ft 102 kts 74°
2026-05-09 10:42 -26.31393 28.09108 6655 ft 104 kts 69°
2026-05-09 10:42 -26.31061 28.09816 6670 ft 101 kts 57°
2026-05-09 10:42 -26.30657 28.10435 6703 ft 97 kts 53°
2026-05-09 10:42 -26.30261 28.11028 6752 ft 95 kts 53°
2026-05-09 10:43 -26.29870 28.11616 6781 ft 95 kts 53°
2026-05-09 10:43 -26.29474 28.12217 6805 ft 96 kts 55°
2026-05-09 10:43 -26.29105 28.12866 6771 ft 103 kts 59°
2026-05-09 10:43 -26.28726 28.13558 6764 ft 104 kts 58°
2026-05-09 10:44 -26.28348 28.14245 6730 ft 108 kts 59°
2026-05-09 10:44 -26.27982 28.14989 6710 ft 109 kts 62°
2026-05-09 10:44 -26.27620 28.15731 6682 ft 110 kts 61°
2026-05-09 10:44 -26.27095 28.16364 6517 ft 120 kts 29°
2026-05-09 10:45 -26.26289 28.16494 6304 ft 117 kts 347°
2026-05-09 10:46 -26.23675 28.15032 5801 ft 90 kts 346°
2026-05-09 10:46 -26.23044 28.14856 5938 ft 97 kts 345°
2026-05-09 10:46 -26.22400 28.14667 6130 ft 96 kts 343°
2026-05-09 10:46 -26.21759 28.14438 6267 ft 100 kts 340°
2026-05-09 10:47 -26.21075 28.14168 6396 ft 103 kts 340°
2026-05-09 10:47 -26.20407 28.13801 6485 ft 115 kts 322°
2026-05-09 10:47 -26.19906 28.13046 6500 ft 123 kts 289°
2026-05-09 10:47 -26.19974 28.12127 6469 ft 125 kts 241°
2026-05-09 10:48 -26.20637 28.11554 6407 ft 123 kts 195°
2026-05-09 10:48 -26.21482 28.11614 6323 ft 122 kts 162°
2026-05-09 10:48 -26.22245 28.11979 6258 ft 117 kts 152°
2026-05-09 10:48 -26.22919 28.12407 6290 ft 108 kts 149°
2026-05-09 10:49 -26.23545 28.12841 6285 ft 105 kts 147°
2026-05-09 10:49 -26.24137 28.13273 6308 ft 100 kts 147°
2026-05-09 10:49 -26.24727 28.13680 6293 ft 101 kts 152°
2026-05-09 10:49 -26.25361 28.13999 6294 ft 99 kts 159°
2026-05-09 10:50 -26.26012 28.14248 6282 ft 100 kts 163°
2026-05-09 10:50 -26.26675 28.14477 6272 ft 100 kts 163°
2026-05-09 10:50 -26.27347 28.14703 6265 ft 100 kts 164°
2026-05-09 10:50 -26.28017 28.14899 6255 ft 100 kts 167°
2026-05-09 10:51 -26.28682 28.15113 6243 ft 100 kts 152°
2026-05-09 10:51 -26.29089 28.15711 6235 ft 99 kts 103°
2026-05-09 10:51 -26.28956 28.16465 6168 ft 104 kts 57°
2026-05-09 10:51 -26.28372 28.16889 6147 ft 103 kts
2026-05-09 10:52 -26.27686 28.16654 6079 ft 107 kts 337°
2026-05-09 10:52 -26.26980 28.16373 5980 ft 108 kts 343°
2026-05-09 10:52 -26.26305 28.16076 5869 ft 102 kts 336°
2026-05-09 10:52 -26.25666 28.15775 5703 ft 98 kts 339°
2026-05-09 10:53 -26.25058 28.15490 5545 ft 91 kts 339°
2026-05-09 10:53 -26.24522 28.15239 5487 ft 75 kts 335°
2026-05-09 10:53 -26.24145 28.15062 5486 ft 34 kts 337°
2026-05-09 10:53 -26.23970 28.14982 5486 ft 20 kts 336°
2026-05-09 10:54 -26.23875 28.14936 5486 ft 12 kts 337°
2026-05-09 10:54 -26.23801 28.14902 5486 ft 12 kts 337°
2026-05-09 10:54 -26.23721 28.14864 5486 ft 15 kts 337°
2026-05-09 10:54 -26.23618 28.14815 5486 ft 15 kts 337°
2026-05-09 10:55 -26.23560 28.14791 5486 ft 3 kts 10°
2026-05-09 10:55 -26.23533 28.14816 5486 ft 5 kts 72°
2026-05-09 10:55 -26.23532 28.14828 5486 ft 0 kts 93°
2026-05-09 10:55 -26.23532 28.14831 5486 ft 4 kts 98°
2026-05-09 10:56 -26.23555 28.14865 5486 ft 6 kts 149°
2026-05-09 10:56 -26.23594 28.14884 5486 ft 6 kts 157°
2026-05-09 10:56 -26.23638 28.14905 5486 ft 7 kts 157°
2026-05-09 10:56 -26.23686 28.14927 5486 ft 8 kts 157°
2026-05-09 10:57 -26.23738 28.14951 5486 ft 8 kts 157°
2026-05-09 10:57 -26.23791 28.14977 5486 ft 8 kts 157°
2026-05-09 10:57 -26.23846 28.15003 5486 ft 9 kts 157°
2026-05-09 10:57 -26.23902 28.15029 5486 ft 9 kts 157°
2026-05-09 10:58 -26.23960 28.15057 5486 ft 9 kts 157°
2026-05-09 10:58 -26.24020 28.15085 5486 ft 10 kts 157°
2026-05-09 10:58 -26.24077 28.15120 5486 ft 9 kts 130°
2026-05-09 10:58 -26.24082 28.15178 5486 ft 8 kts 80°
2026-05-09 10:59 -26.24087 28.15235 5486 ft 7 kts 92°
2026-05-09 10:59 -26.24085 28.15293 5486 ft 8 kts 83°
2026-05-09 10:59 -26.24054 28.15315 5486 ft 4 kts 358°
2026-05-09 10:59 -26.24027 28.15314 5486 ft 6 kts 358°
2026-05-09 11:00 -26.24015 28.15314 5486 ft 0 kts 358°